Time;durP1;ratioP1;P1;durP2;ratioP2;P2;SDS_P1;SDS_P2;PMS_P1;PMS_P2;Temp;Humidity;BMP_temperature;BMP_pressure;BME280_temperature;BME280_humidity;BME280_pressure;Samples;Min_cycle;Max_cycle;Signal;HPM_P1;HPM_P2
2022/09/18 00:01:08;;;;;;;;;;;;;;;14.73;62.26;101588.03;5119412;28;19919;-62
2022/09/18 00:03:35;;;;;;;;;;;;;;;14.72;62.46;101594.50;5122560;28;19927;-62
2022/09/18 00:06:06;;;;;;;;;;;;;;;14.71;62.48;101598.25;5121321;27;20065;-62
2022/09/18 00:08:36;;;;;;;;;;;;;;;14.71;62.40;101598.25;5119768;28;19945;-62
2022/09/18 00:11:05;;;;;;;;;;;;;;;14.72;62.73;101596.38;5116114;28;19919;-63
2022/09/18 00:13:33;;;;;;;;;;;;;;;14.70;62.53;101595.78;5119811;27;19926;-61
2022/09/18 00:16:01;;;;;;;;;;;;;;;14.67;62.39;101591.66;5110991;28;19926;-62
2022/09/18 00:18:28;;;;;;;;;;;;;;;14.65;62.53;101594.59;5124735;28;19953;-62
2022/09/18 00:21:02;;;;;;;;;;;;;;;14.64;62.65;101592.94;5113718;28;19926;-62
2022/09/18 00:23:29;;;;;;;;;;;;;;;14.63;62.85;101594.00;5111914;28;19926;-63
2022/09/18 00:25:58;;;;;;;;;;;;;;;14.62;62.91;101594.22;5107447;28;19931;-62
2022/09/18 00:28:25;;;;;;;;;;;;;;;14.60;62.58;101590.94;5113705;28;19920;-61
2022/09/18 00:30:53;;;;;;;;;;;;;;;14.62;63.00;101588.81;5111672;28;19920;-61
2022/09/18 00:33:21;;;;;;;;;;;;;;;14.64;63.29;101581.28;5125201;28;19919;-61
2022/09/18 00:35:48;;;;;;;;;;;;;;;14.65;63.16;101575.66;5124482;28;19928;-62
2022/09/18 00:38:16;;;;;;;;;;;;;;;14.67;63.24;101577.31;5116099;28;19948;-62
2022/09/18 00:40:43;;;;;;;;;;;;;;;14.69;63.02;101583.31;5118826;28;19924;-62
2022/09/18 00:43:19;;;;;;;;;;;;;;;14.68;63.10;101577.06;5124544;28;19927;-62
2022/09/18 00:45:49;;;;;;;;;;;;;;;14.70;62.95;101577.66;5124681;28;19919;-62
2022/09/18 00:48:17;;;;;;;;;;;;;;;14.70;63.00;101584.97;5124366;28;19920;-62
2022/09/18 00:50:45;;;;;;;;;;;;;;;14.69;62.81;101580.59;5129165;28;19919;-62
2022/09/18 00:53:12;;;;;;;;;;;;;;;14.69;63.01;101588.72;5127248;27;19919;-62
2022/09/18 00:55:41;;;;;;;;;;;;;;;14.69;63.13;101591.44;5121860;28;19920;-61
2022/09/18 00:58:09;;;;;;;;;;;;;;;14.69;62.88;101591.44;5127314;28;19930;-62
2022/09/18 01:00:38;;;;;;;;;;;;;;;14.71;63.01;101586.59;5128940;28;19920;-62
2022/09/18 01:03:06;;;;;;;;;;;;;;;14.73;62.68;101592.63;5128759;28;19919;-61
2022/09/18 01:05:41;;;;;;;;;;;;;;;14.74;62.95;101586.16;5118845;27;19927;-62
2022/09/18 01:08:14;;;;;;;;;;;;;;;14.77;62.77;101588.41;5127278;28;20664;-62
2022/09/18 01:10:48;;;;;;;;;;;;;;;14.78;62.73;101581.91;5128577;28;19919;-62
2022/09/18 01:13:20;;;;;;;;;;;;;;;14.76;62.69;101587.56;5124555;28;19925;-62
2022/09/18 01:15:51;;;;;;;;;;;;;;;14.76;62.77;101582.16;5118296;28;19995;-62
2022/09/18 01:18:25;;;;;;;;;;;;;;;14.77;62.82;101585.69;5124911;28;19983;-63
2022/09/18 01:21:07;;;;;;;;;;;;;;;14.75;62.82;101579.69;5122674;28;19923;-62
2022/09/18 01:23:53;;;;;;;;;;;;;;;14.74;62.99;101580.75;5125990;28;19926;-62
2022/09/18 01:26:29;;;;;;;;;;;;;;;14.73;62.86;101585.31;5124616;28;19929;-62
2022/09/18 01:29:01;;;;;;;;;;;;;;;14.73;62.83;101590.72;5131833;27;20349;-62
2022/09/18 01:31:31;;;;;;;;;;;;;;;14.73;62.76;101587.19;5127981;28;20444;-62
2022/09/18 01:34:01;;;;;;;;;;;;;;;14.72;63.07;101588.25;5127724;28;19954;-62
2022/09/18 01:36:32;;;;;;;;;;;;;;;14.72;62.89;101586.38;5123528;28;19919;-62
2022/09/18 01:39:07;;;;;;;;;;;;;;;14.71;62.79;101589.31;5116650;27;19994;-62
2022/09/18 01:41:36;;;;;;;;;;;;;;;14.71;62.94;101584.72;5115696;28;19943;-62
2022/09/18 01:44:08;;;;;;;;;;;;;;;14.70;62.98;101583.06;5120038;28;19919;-62
2022/09/18 01:46:37;;;;;;;;;;;;;;;14.70;63.04;101576.84;5121926;27;20269;-62
2022/09/18 01:49:07;;;;;;;;;;;;;;;14.70;63.05;101577.66;5128060;28;19924;-62
2022/09/18 01:51:37;;;;;;;;;;;;;;;14.69;63.14;101572.50;5124751;28;19960;-62
2022/09/18 01:54:07;;;;;;;;;;;;;;;14.68;63.16;101574.38;5125136;28;19920;-62
2022/09/18 01:56:36;;;;;;;;;;;;;;;14.67;63.15;101567.31;5110375;27;19931;-62
2022/09/18 01:59:11;;;;;;;;;;;;;;;14.67;63.37;101558.38;5120675;27;19927;-61
2022/09/18 02:01:40;;;;;;;;;;;;;;;14.65;63.36;101556.72;5120832;27;20283;-63
2022/09/18 02:04:11;;;;;;;;;;;;;;;14.66;63.36;101565.66;5115081;27;19934;-62
2022/09/18 02:06:41;;;;;;;;;;;;;;;14.65;63.44;101569.41;5126031;28;19927;-62
2022/09/18 02:09:10;;;;;;;;;;;;;;;14.65;63.48;101566.72;5121113;28;19920;-62
2022/09/18 02:11:40;;;;;;;;;;;;;;;14.64;63.43;101562.34;5114872;27;19920;-62
2022/09/18 02:14:13;;;;;;;;;;;;;;;14.63;63.43;101556.13;5123803;27;19920;-62
2022/09/18 02:16:42;;;;;;;;;;;;;;;14.63;63.50;101561.53;5123719;27;19924;-62
2022/09/18 02:19:14;;;;;;;;;;;;;;;14.63;63.38;101555.28;5107299;28;19931;-62
2022/09/18 02:21:43;;;;;;;;;;;;;;;14.63;63.67;101569.66;5125883;28;19920;-62
2022/09/18 02:24:12;;;;;;;;;;;;;;;14.62;63.76;101559.06;5108685;27;19920;-62
2022/09/18 02:26:40;;;;;;;;;;;;;;;14.60;63.79;101562.00;5118515;27;19919;-62
2022/09/18 02:29:11;;;;;;;;;;;;;;;14.61;63.52;101554.72;5131027;27;19923;-62
2022/09/18 02:31:38;;;;;;;;;;;;;;;14.61;63.83;101550.13;5118311;27;19924;-61
2022/09/18 02:34:08;;;;;;;;;;;;;;;14.60;63.85;101547.66;5119089;28;19935;-62
2022/09/18 02:36:43;;;;;;;;;;;;;;;14.60;63.66;101550.34;5113739;27;19920;-62
2022/09/18 02:39:17;;;;;;;;;;;;;;;14.58;63.86;101549.75;5118859;28;19931;-61
2022/09/18 02:41:49;;;;;;;;;;;;;;;14.58;63.76;101539.75;5125955;27;19931;-62
2022/09/18 02:44:26;;;;;;;;;;;;;;;14.58;63.74;101542.47;5122265;28;19931;-62
2022/09/18 02:46:57;;;;;;;;;;;;;;;14.57;63.76;101537.28;5124657;28;19930;-62
2022/09/18 02:49:33;;;;;;;;;;;;;;;14.57;63.86;101540.00;5117030;28;19930;-62
2022/09/18 02:52:04;;;;;;;;;;;;;;;14.57;63.77;101548.09;5129270;27;19923;-62
2022/09/18 02:54:34;;;;;;;;;;;;;;;14.56;63.79;101541.88;5121106;28;19928;-62
2022/09/18 02:57:03;;;;;;;;;;;;;;;14.57;63.79;101548.09;5117301;28;19920;-62
2022/09/18 02:59:39;;;;;;;;;;;;;;;14.55;63.61;101542.09;5125713;28;19919;-62
2022/09/18 03:02:07;;;;;;;;;;;;;;;14.54;64.15;101530.47;5126285;28;19986;-61
2022/09/18 03:04:35;;;;;;;;;;;;;;;14.55;64.19;101532.09;5118218;28;19930;-62
2022/09/18 03:07:03;;;;;;;;;;;;;;;14.54;64.10;101524.22;5122982;27;19920;-62
2022/09/18 03:09:31;;;;;;;;;;;;;;;14.53;63.98;101528.81;5122967;27;19923;-62
2022/09/18 03:11:59;;;;;;;;;;;;;;;14.54;64.24;101522.34;5117199;28;19931;-63
2022/09/18 03:14:26;;;;;;;;;;;;;;;14.52;63.91;101518.22;5120165;27;19924;-62
2022/09/18 03:16:55;;;;;;;;;;;;;;;14.53;64.06;101519.88;5124849;27;19930;-61
2022/09/18 03:19:22;;;;;;;;;;;;;;;14.52;64.05;101524.47;5124111;28;19934;-62
2022/09/18 03:21:51;;;;;;;;;;;;;;;14.53;64.05;101520.69;5117467;28;19927;-62
2022/09/18 03:24:19;;;;;;;;;;;;;;;14.52;64.01;101513.63;5113951;28;19920;-62
2022/09/18 03:26:47;;;;;;;;;;;;;;;14.52;64.33;101516.34;5123132;28;20014;-62
2022/09/18 03:29:14;;;;;;;;;;;;;;;14.52;64.23;101505.53;5124693;28;19920;-62
2022/09/18 03:31:42;;;;;;;;;;;;;;;14.52;64.38;101516.34;5123873;28;20410;-62
2022/09/18 03:34:11;;;;;;;;;;;;;;;14.51;64.30;101522.81;5118812;27;19942;-61
2022/09/18 03:36:38;;;;;;;;;;;;;;;14.49;64.60;101519.50;5113916;27;19943;-62
2022/09/18 03:39:06;;;;;;;;;;;;;;;14.50;64.08;101523.03;5115478;28;19920;-62
2022/09/18 03:41:33;;;;;;;;;;;;;;;14.50;64.26;101531.16;5114699;28;19919;-61
2022/09/18 03:44:01;;;;;;;;;;;;;;;14.48;64.27;101539.50;5124386;27;19927;-61
2022/09/18 03:46:29;;;;;;;;;;;;;;;14.47;64.68;101537.03;5124579;28;19933;-61
2022/09/18 03:48:56;;;;;;;;;;;;;;;14.47;64.80;101527.03;5124827;28;20319;-61
2022/09/18 03:51:25;;;;;;;;;;;;;;;14.46;64.48;101522.69;5111633;28;20015;-62
2022/09/18 03:53:52;;;;;;;;;;;;;;;14.47;64.55;101521.63;5105410;27;19920;-62
2022/09/18 03:56:20;;;;;;;;;;;;;;;14.47;64.52;101518.91;5119489;27;19924;-62
2022/09/18 03:58:48;;;;;;;;;;;;;;;14.47;64.56;101521.63;5110305;28;19919;-62
2022/09/18 04:01:15;;;;;;;;;;;;;;;14.47;64.62;101512.69;5117175;28;19930;-62
2022/09/18 04:03:43;;;;;;;;;;;;;;;14.47;64.52;101508.09;5112172;28;19920;-61
2022/09/18 04:06:10;;;;;;;;;;;;;;;14.47;64.54;101502.69;5123199;28;19920;-62
2022/09/18 04:08:39;;;;;;;;;;;;;;;14.47;64.41;101505.38;5123366;28;20377;-61
2022/09/18 04:11:07;;;;;;;;;;;;;;;14.46;64.30;101497.50;5111895;28;19943;-62
2022/09/18 04:13:34;;;;;;;;;;;;;;;14.47;64.52;101501.84;5121832;28;19920;-63
2022/09/18 04:16:02;;;;;;;;;;;;;;;14.48;64.28;101503.50;5110529;28;20323;-61
2022/09/18 04:18:30;;;;;;;;;;;;;;;14.47;64.29;101507.28;5116521;28;19920;-63
2022/09/18 04:20:57;;;;;;;;;;;;;;;14.46;64.42;101509.16;5117068;28;19919;-62
2022/09/18 04:23:25;;;;;;;;;;;;;;;14.46;64.42;101506.44;5122464;28;20395;-62
2022/09/18 04:25:53;;;;;;;;;;;;;;;14.44;64.35;101505.84;5129526;27;19930;-61
2022/09/18 04:28:21;;;;;;;;;;;;;;;14.46;64.43;101502.91;5119305;28;19985;-63
2022/09/18 04:30:48;;;;;;;;;;;;;;;14.45;64.09;101504.81;5127976;28;19926;-61
2022/09/18 04:33:16;;;;;;;;;;;;;;;14.44;64.43;101503.16;5131807;28;19926;-62
2022/09/18 04:35:43;;;;;;;;;;;;;;;14.44;64.37;101503.16;5130412;28;19920;-62
2022/09/18 04:38:11;;;;;;;;;;;;;;;14.45;64.10;101509.38;5128609;27;19934;-62
2022/09/18 04:40:38;;;;;;;;;;;;;;;14.45;64.42;101515.63;5127117;28;19920;-61
2022/09/18 04:43:09;;;;;;;;;;;;;;;14.43;64.43;101509.63;5121066;27;20029;-61
2022/09/18 04:45:36;;;;;;;;;;;;;;;14.44;64.42;101507.72;5122197;28;19927;-62
2022/09/18 04:48:04;;;;;;;;;;;;;;;14.43;64.11;101509.63;5131627;28;20361;-62
2022/09/18 04:50:31;;;;;;;;;;;;;;;14.43;64.25;101506.91;5126380;28;19927;-62
2022/09/18 04:52:59;;;;;;;;;;;;;;;14.43;64.14;101509.63;5118549;28;19920;-61
2022/09/18 04:55:26;;;;;;;;;;;;;;;14.43;64.37;101517.72;5128061;27;19920;-62
2022/09/18 04:57:54;;;;;;;;;;;;;;;14.41;64.16;101510.88;5132175;27;19924;-62
2022/09/18 05:00:22;;;;;;;;;;;;;;;14.41;64.21;101513.56;5128293;27;19920;-62
2022/09/18 05:02:50;;;;;;;;;;;;;;;14.41;64.53;101505.47;5112914;27;19923;-62
2022/09/18 05:05:17;;;;;;;;;;;;;;;14.40;64.33;101506.50;5130289;27;19930;-62
2022/09/18 05:07:45;;;;;;;;;;;;;;;14.40;64.33;101520.03;5135337;27;19919;-61
2022/09/18 05:10:12;;;;;;;;;;;;;;;14.39;64.26;101527.31;5113203;27;19931;-62
2022/09/18 05:12:40;;;;;;;;;;;;;;;14.38;64.31;101522.16;5112423;27;19920;-61
2022/09/18 05:15:09;;;;;;;;;;;;;;;14.37;64.73;101499.69;5128789;27;19951;-62
2022/09/18 05:17:39;;;;;;;;;;;;;;;14.39;64.46;101512.97;5127724;27;19920;-63
2022/09/18 05:20:07;;;;;;;;;;;;;;;14.37;64.77;101486.16;5128746;28;19920;-63
2022/09/18 05:22:35;;;;;;;;;;;;;;;14.36;64.70;101486.41;5122817;27;19936;-62
2022/09/18 05:25:03;;;;;;;;;;;;;;;14.37;64.67;101501.56;5124097;27;19920;-62
2022/09/18 05:27:30;;;;;;;;;;;;;;;14.36;64.41;101508.84;5117769;27;19931;-62
2022/09/18 05:29:58;;;;;;;;;;;;;;;14.36;64.72;101505.31;5123038;27;19920;-62
2022/09/18 05:32:25;;;;;;;;;;;;;;;14.36;64.64;101514.25;5122483;27;19942;-62
2022/09/18 05:34:54;;;;;;;;;;;;;;;14.34;64.78;101511.78;5115023;28;20360;-62
2022/09/18 05:37:22;;;;;;;;;;;;;;;14.34;64.89;101514.50;5122916;28;19920;-62
2022/09/18 05:39:49;;;;;;;;;;;;;;;14.34;64.95;101517.19;5127352;28;19919;-61
2022/09/18 05:42:17;;;;;;;;;;;;;;;14.34;65.02;101514.50;5126368;28;19919;-62
2022/09/18 05:44:44;;;;;;;;;;;;;;;14.34;64.80;101517.19;5115724;28;19928;-62
2022/09/18 05:47:12;;;;;;;;;;;;;;;14.35;65.10;101526.13;5124150;28;19920;-62
2022/09/18 05:49:39;;;;;;;;;;;;;;;14.35;65.16;101531.53;5128386;27;19920;-62
2022/09/18 05:52:08;;;;;;;;;;;;;;;14.34;65.06;101521.78;5115089;27;19920;-62
2022/09/18 05:54:35;;;;;;;;;;;;;;;14.33;64.90;101520.13;5123306;27;19927;-62
2022/09/18 05:57:03;;;;;;;;;;;;;;;14.33;65.18;101515.53;5112375;28;19930;-62
2022/09/18 05:59:30;;;;;;;;;;;;;;;14.34;64.75;101519.91;5114647;28;20347;-62
2022/09/18 06:01:58;;;;;;;;;;;;;;;14.33;64.80;101510.13;5127332;28;19920;-62
2022/09/18 06:04:25;;;;;;;;;;;;;;;14.34;65.00;101516.38;5123530;28;19934;-62
2022/09/18 06:06:53;;;;;;;;;;;;;;;14.35;64.85;101515.31;5123102;27;19924;-62
2022/09/18 06:09:22;;;;;;;;;;;;;;;14.34;65.12;101525.31;5127380;28;19919;-62
2022/09/18 06:11:49;;;;;;;;;;;;;;;14.33;65.04;101515.53;5125547;27;19923;-62
2022/09/18 06:14:17;;;;;;;;;;;;;;;14.34;65.06;101516.38;5118335;27;20242;-61
2022/09/18 06:16:44;;;;;;;;;;;;;;;14.33;64.79;101515.53;5120804;28;19920;-62
2022/09/18 06:19:12;;;;;;;;;;;;;;;14.34;65.12;101510.97;5116914;27;19928;-62
2022/09/18 06:21:40;;;;;;;;;;;;;;;14.33;64.57;101507.44;5125464;28;19919;-61
2022/09/18 06:24:08;;;;;;;;;;;;;;;14.32;64.85;101499.56;5109560;28;19931;-63
2022/09/18 06:26:37;;;;;;;;;;;;;;;14.31;65.15;101497.91;5120383;27;19920;-62
2022/09/18 06:29:04;;;;;;;;;;;;;;;14.31;65.08;101498.72;5113161;27;19924;-62
2022/09/18 06:31:32;;;;;;;;;;;;;;;14.30;64.92;101501.66;5124020;28;20398;-62
2022/09/18 06:33:59;;;;;;;;;;;;;;;14.30;64.83;101501.66;5122860;27;19939;-63
2022/09/18 06:36:27;;;;;;;;;;;;;;;14.31;64.94;101503.31;5113237;28;19920;-62
2022/09/18 06:38:54;;;;;;;;;;;;;;;14.29;64.91;101491.91;5120208;28;19926;-62
2022/09/18 06:41:23;;;;;;;;;;;;;;;14.31;65.11;101500.59;5114843;27;19919;-62
2022/09/18 06:43:52;;;;;;;;;;;;;;;14.31;64.97;101498.72;5112836;27;19927;-62
2022/09/18 06:46:20;;;;;;;;;;;;;;;14.30;64.79;101488.97;5118679;28;19923;-62
2022/09/18 06:48:48;;;;;;;;;;;;;;;14.31;65.18;101489.78;5123767;28;19955;-62
2022/09/18 06:51:15;;;;;;;;;;;;;;;14.31;65.18;101493.31;5125334;28;19942;-61
2022/09/18 06:53:43;;;;;;;;;;;;;;;14.31;64.85;101492.50;5116051;28;19919;-61
2022/09/18 06:56:10;;;;;;;;;;;;;;;14.32;64.99;101491.44;5112535;28;19920;-62
2022/09/18 06:58:37;;;;;;;;;;;;;;;14.32;64.99;101491.44;5113715;27;19931;-62
2022/09/18 07:01:06;;;;;;;;;;;;;;;14.31;65.30;101501.44;5115274;28;19919;-62
2022/09/18 07:03:34;;;;;;;;;;;;;;;14.32;65.44;101494.16;5109724;28;19935;-62
2022/09/18 07:06:01;;;;;;;;;;;;;;;14.31;65.38;101504.13;5119755;28;19928;-63
2022/09/18 07:08:30;;;;;;;;;;;;;;;14.32;65.25;101499.56;5114985;27;19920;-62
2022/09/18 07:10:59;;;;;;;;;;;;;;;14.32;65.31;101499.56;5116078;27;19920;-63
2022/09/18 07:13:29;;;;;;;;;;;;;;;14.32;65.42;101496.84;5111280;28;20289;-63
2022/09/18 07:15:56;;;;;;;;;;;;;;;14.31;65.51;101493.31;5109124;28;19935;-62
2022/09/18 07:18:25;;;;;;;;;;;;;;;14.33;65.59;101490.38;5114334;28;20315;-62
2022/09/18 07:20:53;;;;;;;;;;;;;;;14.33;65.55;101496.63;5112354;28;19940;-63
2022/09/18 07:23:20;;;;;;;;;;;;;;;14.33;65.57;101483.09;5105679;27;19920;-63
2022/09/18 07:25:48;;;;;;;;;;;;;;;14.32;65.51;101488.75;5114084;27;19920;-63
2022/09/18 07:28:16;;;;;;;;;;;;;;;14.32;65.54;101496.84;5112893;28;19923;-64
2022/09/18 07:30:43;;;;;;;;;;;;;;;14.33;65.59;101490.38;5109316;28;19919;-62
2022/09/18 07:33:11;;;;;;;;;;;;;;;14.33;65.65;101491.22;5110667;27;19928;-62
2022/09/18 07:35:40;;;;;;;;;;;;;;;14.33;65.69;101491.22;5107631;28;19931;-61
2022/09/18 07:38:08;;;;;;;;;;;;;;;14.32;65.45;101478.75;5118217;28;19920;-62
2022/09/18 07:40:35;;;;;;;;;;;;;;;14.33;65.85;101469.59;5124127;27;19926;-62
2022/09/18 07:43:04;;;;;;;;;;;;;;;14.34;66.27;101467.69;5123366;28;20048;-63
2022/09/18 07:45:32;;;;;;;;;;;;;;;14.36;65.99;101464.75;5120550;27;20313;-63
2022/09/18 07:48:00;;;;;;;;;;;;;;;14.36;65.83;101465.59;5117847;27;19948;-64
2022/09/18 07:50:28;;;;;;;;;;;;;;;14.36;66.05;101472.88;5126132;27;19920;-61
2022/09/18 07:52:57;;;;;;;;;;;;;;;14.36;66.13;101471.00;5120194;27;19919;-60
2022/09/18 07:55:26;;;;;;;;;;;;;;;14.36;66.29;101470.16;5120195;27;19923;-61
2022/09/18 07:57:55;;;;;;;;;;;;;;;14.37;66.26;101464.53;5123458;28;19938;-61
2022/09/18 08:00:22;;;;;;;;;;;;;;;14.37;66.52;101463.72;5120207;27;19939;-62
2022/09/18 08:02:50;;;;;;;;;;;;;;;14.37;66.46;101461.00;5121335;27;19927;-67
2022/09/18 08:05:17;;;;;;;;;;;;;;;14.38;66.43;101468.06;5123349;27;20293;-63
2022/09/18 08:07:45;;;;;;;;;;;;;;;14.38;66.17;101470.75;5111773;28;20380;-62
2022/09/18 08:10:14;;;;;;;;;;;;;;;14.39;66.38;101469.72;5109422;28;19920;-63
2022/09/18 08:12:41;;;;;;;;;;;;;;;14.39;66.38;101469.72;5119438;27;19927;-62
2022/09/18 08:15:09;;;;;;;;;;;;;;;14.39;66.30;101469.72;5115567;28;19920;-62
2022/09/18 08:17:43;;;;;;;;;;;;;;;14.40;66.56;101469.47;5121254;28;19934;-62
2022/09/18 08:20:11;;;;;;;;;;;;;;;14.48;66.56;101476.47;5113000;28;19931;-62
2022/09/18 08:22:38;;;;;;;;;;;;;;;14.45;66.63;101474.22;5120649;28;19920;-63
2022/09/18 08:25:06;;;;;;;;;;;;;;;14.41;66.81;101473.84;5120390;28;20407;-62
2022/09/18 08:27:36;;;;;;;;;;;;;;;14.43;66.53;101468.22;5122346;28;19928;-62
2022/09/18 08:30:05;;;;;;;;;;;;;;;14.50;66.82;101469.75;5105038;28;19920;-62
2022/09/18 08:32:33;;;;;;;;;;;;;;;14.47;66.65;101472.94;5118620;28;19927;-64
2022/09/18 08:35:00;;;;;;;;;;;;;;;14.47;66.72;101474.81;5124234;28;20364;-63
2022/09/18 08:37:28;;;;;;;;;;;;;;;14.47;66.39;101482.94;5120402;28;19924;-62
2022/09/18 08:39:56;;;;;;;;;;;;;;;14.46;66.51;101483.97;5124583;28;19923;-62
2022/09/18 08:42:27;;;;;;;;;;;;;;;14.45;66.69;101485.03;5121499;28;19942;-62
2022/09/18 08:45:02;;;;;;;;;;;;;;;14.45;66.77;101487.75;5113078;28;19934;-62
2022/09/18 08:47:32;;;;;;;;;;;;;;;14.44;67.04;101486.09;5112557;28;19927;-62
2022/09/18 08:50:02;;;;;;;;;;;;;;;14.43;66.81;101489.84;5123227;28;19941;-62
2022/09/18 08:52:32;;;;;;;;;;;;;;;14.43;66.98;101485.28;5122224;28;19985;-62
2022/09/18 08:55:02;;;;;;;;;;;;;;;14.53;66.59;101482.00;5104353;28;19931;-62
2022/09/18 08:57:34;;;;;;;;;;;;;;;14.47;66.75;101478.34;5116794;28;19934;-62
2022/09/18 09:00:07;;;;;;;;;;;;;;;14.45;66.91;101480.47;5121800;28;19930;-63
2022/09/18 09:02:39;;;;;;;;;;;;;;;14.48;66.76;101484.56;5110413;28;19920;-63
2022/09/18 09:05:09;;;;;;;;;;;;;;;14.47;66.96;101491.03;5104700;28;19947;-62
2022/09/18 09:07:45;;;;;;;;;;;;;;;14.47;66.97;101483.75;5120396;28;19920;-62
2022/09/18 09:10:19;;;;;;;;;;;;;;;14.46;66.98;101497.50;5119746;28;20089;-63
2022/09/18 09:12:49;;;;;;;;;;;;;;;14.45;67.04;101493.16;5115036;28;20381;-63
2022/09/18 09:15:37;;;;;;;;;;;;;;;14.47;67.03;101497.28;5118919;27;19927;-62
2022/09/18 09:18:14;;;;;;;;;;;;;;;14.46;66.79;101494.81;5110241;28;19928;-62
2022/09/18 09:20:49;;;;;;;;;;;;;;;14.43;67.03;101493.38;5113361;28;19931;-62
2022/09/18 09:23:19;;;;;;;;;;;;;;;14.45;66.89;101495.84;5127687;28;19920;-63
2022/09/18 09:25:53;;;;;;;;;;;;;;;14.44;66.84;101491.50;5126713;27;19930;-63
2022/09/18 09:28:23;;;;;;;;;;;;;;;14.45;67.19;101487.75;5117124;28;19920;-62
2022/09/18 09:30:54;;;;;;;;;;;;;;;14.41;66.96;101465.72;5123141;27;19926;-63
2022/09/18 09:33:26;;;;;;;;;;;;;;;14.42;67.07;101475.50;5126708;28;19920;-62
2022/09/18 09:35:54;;;;;;;;;;;;;;;14.42;67.34;101467.41;5128010;28;19979;-62
2022/09/18 09:38:32;;;;;;;;;;;;;;;14.42;67.43;101475.50;5120695;28;19919;-62
2022/09/18 09:41:03;;;;;;;;;;;;;;;14.42;67.42;101477.41;5118534;28;19927;-63
2022/09/18 09:43:34;;;;;;;;;;;;;;;14.42;67.39;101478.22;5126287;28;19920;-63
2022/09/18 09:46:08;;;;;;;;;;;;;;;14.42;67.33;101472.81;5125354;28;19920;-63
2022/09/18 09:48:41;;;;;;;;;;;;;;;14.42;67.66;101475.50;5119616;28;20012;-65
2022/09/18 09:51:11;;;;;;;;;;;;;;;14.42;67.44;101472.81;5114045;28;19920;-63
2022/09/18 09:53:38;;;;;;;;;;;;;;;14.43;67.38;101477.16;5126103;27;19919;-63
2022/09/18 09:56:11;;;;;;;;;;;;;;;14.44;67.62;101472.56;4760158;27;10000000;-61
2022/09/18 09:58:46;;;;;;;;;;;;;;;14.43;67.53;101482.56;5114743;27;19934;-63
2022/09/18 10:01:15;;;;;;;;;;;;;;;14.47;67.82;101474.81;5124303;27;20015;-63
2022/09/18 10:03:51;;;;;;;;;;;;;;;14.47;67.56;101475.63;5128786;27;19946;-64
2022/09/18 10:06:36;;;;;;;;;;;;;;;14.48;67.72;101474.59;5119806;27;20002;-64
2022/09/18 10:09:10;;;;;;;;;;;;;;;14.48;68.08;101471.06;5119509;28;19946;-67
2022/09/18 10:11:41;;;;;;;;;;;;;;;14.46;68.02;101474.00;5109749;27;20261;-64
2022/09/18 10:14:12;;;;;;;;;;;;;;;14.48;68.17;101473.75;5116308;28;19924;-69
2022/09/18 10:16:42;;;;;;;;;;;;;;;14.46;68.05;101463.19;5118167;28;19938;-69
2022/09/18 10:19:15;;;;;;;;;;;;;;;14.46;68.22;101463.19;5115589;28;19928;-69
2022/09/18 10:21:42;;;;;;;;;;;;;;;14.46;68.08;101460.47;5119657;27;19930;-70
2022/09/18 10:24:16;;;;;;;;;;;;;;;14.47;68.13;101464.00;5120999;28;19923;-63
2022/09/18 10:26:45;;;;;;;;;;;;;;;14.47;68.14;101462.13;5117176;28;19928;-70
2022/09/18 10:29:13;;;;;;;;;;;;;;;14.48;68.05;101455.66;5106715;28;19923;-68
2022/09/18 10:31:47;;;;;;;;;;;;;;;14.48;68.08;101458.34;5114894;28;19952;-66
2022/09/18 10:34:33;;;;;;;;;;;;;;;14.51;68.21;101463.31;5114761;27;20353;-69
2022/09/18 10:37:02;;;;;;;;;;;;;;;14.51;68.11;101471.41;5117858;28;20345;-68
2022/09/18 10:39:30;;;;;;;;;;;;;;;14.52;68.28;101461.41;5119504;28;19919;-69
2022/09/18 10:41:58;;;;;;;;;;;;;;;14.51;68.27;101457.88;5112988;28;19993;-74
2022/09/18 10:44:27;;;;;;;;;;;;;;;14.52;68.60;101464.13;5113009;28;19996;-67
2022/09/18 10:46:57;;;;;;;;;;;;;;;14.52;68.41;101462.25;5107581;28;19924;-65
2022/09/18 10:49:28;;;;;;;;;;;;;;;14.53;68.63;101458.47;5119284;28;19947;-68
2022/09/18 10:52:10;;;;;;;;;;;;;;;14.57;68.96;101458.84;5106315;28;19930;-68
2022/09/18 10:54:39;;;;;;;;;;;;;;;14.56;68.90;101463.44;5127433;27;19920;-69
2022/09/18 10:57:24;;;;;;;;;;;;;;;14.57;68.82;101453.44;5113880;27;19919;-68
2022/09/18 10:59:52;;;;;;;;;;;;;;;14.59;68.94;101443.19;5121296;27;19920;-68
2022/09/18 11:02:20;;;;;;;;;;;;;;;14.58;68.62;101436.97;5127915;27;19920;-66
2022/09/18 11:04:48;;;;;;;;;;;;;;;14.59;68.86;101437.78;5114649;28;20290;-68
2022/09/18 11:07:17;;;;;;;;;;;;;;;14.61;68.73;101436.50;5120067;27;19927;-68
2022/09/18 11:09:51;;;;;;;;;;;;;;;14.63;68.65;101428.97;5124027;27;19930;-68
2022/09/18 11:12:20;;;;;;;;;;;;;;;14.62;68.59;101435.44;5117357;27;19920;-67
2022/09/18 11:14:49;;;;;;;;;;;;;;;14.62;68.71;101440.84;5130079;27;20236;-64
2022/09/18 11:17:25;;;;;;;;;;;;;;;14.63;68.70;101442.50;5121615;27;19923;-69
2022/09/18 11:19:54;;;;;;;;;;;;;;;14.65;68.74;101440.38;5121609;27;19920;-72
2022/09/18 11:22:32;;;;;;;;;;;;;;;14.66;68.55;101435.78;5125514;27;19943;-70
2022/09/18 11:25:13;;;;;;;;;;;;;;;14.66;68.56;101435.78;5123199;27;19919;-66
2022/09/18 11:27:45;;;;;;;;;;;;;;;14.66;69.40;101435.78;5117972;27;19924;-70
2022/09/18 11:30:14;;;;;;;;;;;;;;;14.64;69.09;101436.03;5122926;27;19927;-70
2022/09/18 11:32:44;;;;;;;;;;;;;;;14.65;68.83;101444.97;5121671;27;19924;-72
2022/09/18 11:35:14;;;;;;;;;;;;;;;14.76;68.65;101454.97;5122634;27;19920;-73
2022/09/18 11:37:46;;;;;;;;;;;;;;;14.71;68.53;101449.44;5111757;28;19923;-70
2022/09/18 11:40:19;;;;;;;;;;;;;;;14.70;69.03;101452.38;5122428;27;19920;-68
2022/09/18 11:42:49;;;;;;;;;;;;;;;14.69;69.09;101466.97;4760539;28;10000641;-69
2022/09/18 11:45:25;;;;;;;;;;;;;;;14.67;69.09;101474.50;5116240;28;19978;-69
2022/09/18 11:47:57;;;;;;;;;;;;;;;14.65;69.37;101483.66;5118681;28;19962;-68
2022/09/18 11:50:26;;;;;;;;;;;;;;;14.64;69.24;101479.31;5117665;28;20272;-68
2022/09/18 11:52:54;;;;;;;;;;;;;;;14.64;69.38;101481.19;5118630;28;19924;-68
2022/09/18 11:55:27;;;;;;;;;;;;;;;14.63;69.43;101474.97;5114330;28;19919;-68
2022/09/18 11:57:56;;;;;;;;;;;;;;;14.63;69.19;101474.13;5121505;28;19919;-68
2022/09/18 12:00:26;;;;;;;;;;;;;;;14.63;69.31;101479.56;5113701;28;19930;-68
2022/09/18 12:02:58;;;;;;;;;;;;;;;14.60;69.34;101480.00;5118532;28;19924;-68
2022/09/18 12:05:28;;;;;;;;;;;;;;;14.58;69.20;101476.72;5108133;28;19924;-68
2022/09/18 12:07:59;;;;;;;;;;;;;;;14.59;69.04;101470.25;5121563;28;19923;-69
2022/09/18 12:10:31;;;;;;;;;;;;;;;14.58;68.80;101476.72;5118365;28;20755;-69
2022/09/18 12:13:06;;;;;;;;;;;;;;;14.58;68.84;101474.00;5114883;28;19931;-69
2022/09/18 12:15:35;;;;;;;;;;;;;;;14.57;68.63;101489.41;5117378;28;19925;-69
2022/09/18 12:18:04;;;;;;;;;;;;;;;14.56;68.79;101486.94;5120391;28;19923;-68
2022/09/18 12:20:33;;;;;;;;;;;;;;;14.56;68.67;101490.47;5116702;28;20065;-68
2022/09/18 12:23:01;;;;;;;;;;;;;;;14.57;68.62;101492.13;5116820;28;19955;-68
2022/09/18 12:25:34;;;;;;;;;;;;;;;14.55;68.54;101491.53;5120508;28;19995;-68
2022/09/18 12:28:07;;;;;;;;;;;;;;;14.55;68.73;101486.13;5121105;28;19920;-68
2022/09/18 12:30:38;;;;;;;;;;;;;;;14.54;68.67;101492.59;5120794;28;19924;-67
2022/09/18 12:33:09;;;;;;;;;;;;;;;14.54;68.52;101486.34;5121796;28;19919;-70
2022/09/18 12:35:58;;;;;;;;;;;;;;;14.53;68.87;101492.81;5114784;28;20388;-69
2022/09/18 12:38:38;;;;;;;;;;;;;;;14.54;68.65;101494.47;5115056;28;19957;-69
2022/09/18 12:41:13;;;;;;;;;;;;;;;14.53;68.67;101490.94;5117985;28;19923;-68
2022/09/18 12:43:54;;;;;;;;;;;;;;;14.56;69.16;101495.88;5108827;28;19927;-70
2022/09/18 12:46:39;;;;;;;;;;;;;;;14.58;68.98;101495.66;5123040;28;19923;-71
2022/09/18 12:49:22;;;;;;;;;;;;;;;14.60;69.08;101494.38;5117944;28;19920;-69